Time;durP1;ratioP1;P1;durP2;ratioP2;P2;SDS_P1;SDS_P2;PMS_P1;PMS_P2;Temp;Humidity;BMP_temperature;BMP_pressure;BME280_temperature;BME280_humidity;BME280_pressure;Samples;Min_cycle;Max_cycle;Signal;HPM_P1;HPM_P2
2022/03/12 05:02:26;;;;;;;8.38;4.43;;;1.80;65.30;;;;;;5072003;23;20235;-67
2022/03/12 05:04:53;;;;;;;3.95;3.63;;;1.80;65.30;;;;;;4990081;28;20629;-67
2022/03/12 05:07:20;;;;;;;5.60;4.80;;;1.80;65.20;;;;;;4992986;28;20692;-67
2022/03/12 05:09:47;;;;;;;6.18;4.50;;;1.80;65.10;;;;;;4994009;28;20262;-67
2022/03/12 05:12:14;;;;;;;3.00;2.22;;;1.80;65.30;;;;;;4994745;28;20224;-68
2022/03/12 05:14:50;;;;;;;3.15;2.95;;;1.70;65.40;;;;;;4993935;28;20614;-67
2022/03/12 05:17:18;;;;;;;5.43;3.25;;;1.70;65.30;;;;;;4995002;28;20215;-67
2022/03/12 05:19:46;;;;;;;5.10;4.68;;;1.70;65.50;;;;;;4993470;28;20614;-67
2022/03/12 05:22:12;;;;;;;6.50;5.53;;;1.70;65.80;;;;;;5020756;23;20230;-69
2022/03/12 05:24:39;;;;;;;4.47;3.53;;;1.70;65.70;;;;;;5007501;28;20686;-69
2022/03/12 05:27:06;;;;;;;6.95;5.50;;;1.60;66.00;;;;;;5014333;28;20214;-69
2022/03/12 05:29:34;;;;;;;6.38;3.63;;;1.60;66.20;;;;;;5011550;28;20605;-69
2022/03/12 05:32:01;;;;;;;6.30;5.50;;;1.60;66.60;;;;;;5014110;28;20230;-69
2022/03/12 05:34:28;;;;;;;6.57;4.75;;;1.60;66.40;;;;;;5011778;28;20215;-69
2022/03/12 05:36:56;;;;;;;5.93;4.70;;;1.60;66.60;;;;;;5012912;28;20568;-70
2022/03/12 05:39:24;;;;;;;10.38;4.30;;;1.50;67.60;;;;;;5013339;28;20325;-70
2022/03/12 05:41:51;;;;;;;3.22;2.65;;;1.50;67.20;;;;;;4993532;28;20295;-69
2022/03/12 05:44:18;;;;;;;3.17;2.80;;;1.50;67.00;;;;;;5006068;28;20209;-69
2022/03/12 05:46:45;;;;;;;4.75;4.22;;;1.50;66.80;;;;;;5014394;28;20648;-69
2022/03/12 05:49:12;;;;;;;3.60;3.30;;;1.50;67.00;;;;;;5002943;28;20208;-68
2022/03/12 05:51:42;;;;;;;2.50;2.30;;;1.40;67.10;;;;;;5005410;28;20294;-69
2022/03/12 05:54:10;;;;;;;6.50;5.32;;;1.40;66.80;;;;;;5003685;28;20208;-70
2022/03/12 05:56:40;;;;;;;4.82;3.97;;;1.40;66.80;;;;;;5008347;28;20214;-70
2022/03/12 05:59:07;;;;;;;4.55;4.15;;;1.40;66.80;;;;;;5006282;28;20199;-68
2022/03/12 06:01:33;;;;;;;3.85;3.45;;;1.40;67.30;;;;;;5007336;28;20342;-69
2022/03/12 06:04:01;;;;;;;5.95;4.03;;;1.40;67.30;;;;;;5012529;28;20203;-68
2022/03/12 06:06:30;;;;;;;3.65;3.35;;;1.40;67.50;;;;;;5010155;28;20239;-69
2022/03/12 06:08:57;;;;;;;2.45;2.25;;;1.40;67.70;;;;;;5006128;28;20203;-69
2022/03/12 06:11:27;;;;;;;4.45;4.10;;;1.40;67.40;;;;;;4998383;28;20196;-68
2022/03/12 06:13:57;;;;;;;7.25;4.00;;;1.40;67.60;;;;;;5004281;28;20262;-69
2022/03/12 06:16:24;;;;;;;4.95;4.45;;;1.40;67.50;;;;;;5012671;28;20234;-69
2022/03/12 06:18:52;;;;;;;2.70;2.35;;;1.40;67.10;;;;;;5012125;28;20207;-69
2022/03/12 06:21:19;;;;;;;7.78;5.25;;;1.50;66.90;;;;;;5012233;28;20203;-69
2022/03/12 06:23:46;;;;;;;3.03;1.92;;;1.50;66.90;;;;;;5011840;28;20716;-69
2022/03/12 06:26:16;;;;;;;4.30;4.10;;;1.50;66.80;;;;;;5013306;28;20215;-69
2022/03/12 06:28:45;;;;;;;4.68;4.20;;;1.50;66.40;;;;;;5012644;28;20214;-70
2022/03/12 06:31:13;;;;;;;6.03;3.92;;;1.50;66.60;;;;;;5011701;28;20203;-68
2022/03/12 06:33:41;;;;;;;6.30;4.53;;;1.60;66.40;;;;;;5012734;28;20562;-68
2022/03/12 06:36:09;;;;;;;8.15;4.30;;;1.60;66.00;;;;;;5003292;28;20223;-68
2022/03/12 06:38:37;;;;;;;4.53;4.13;;;1.70;65.60;;;;;;4999650;28;20571;-68
2022/03/12 06:41:05;;;;;;;4.03;3.35;;;1.80;65.90;;;;;;5007067;28;20692;-70
2022/03/12 06:43:32;;;;;;;4.55;4.07;;;1.90;65.00;;;;;;4997737;28;20223;-68
2022/03/12 06:46:02;;;;;;;8.55;4.10;;;2.00;64.60;;;;;;5012523;28;20207;-68
2022/03/12 06:48:29;;;;;;;2.85;2.63;;;2.00;64.50;;;;;;5011057;28;20686;-70
2022/03/12 06:50:56;;;;;;;3.38;2.40;;;2.00;64.30;;;;;;5012179;28;20640;-69
2022/03/12 06:53:23;;;;;;;4.65;3.63;;;2.10;64.30;;;;;;5011385;28;20289;-69
2022/03/12 06:55:50;;;;;;;6.60;3.70;;;2.10;64.10;;;;;;5012952;28;20211;-70
2022/03/12 06:58:18;;;;;;;2.15;2.13;;;2.20;63.80;;;;;;5011309;28;20211;-71
2022/03/12 07:00:44;;;;;;;5.18;3.90;;;2.20;63.50;;;;;;5008755;28;20282;-71
2022/03/12 07:03:12;;;;;;;3.85;3.47;;;2.20;63.50;;;;;;5000086;28;20735;-70
2022/03/12 07:05:39;;;;;;;4.97;3.97;;;2.30;63.00;;;;;;5005944;28;20195;-69
2022/03/12 07:08:06;;;;;;;2.00;1.90;;;2.30;62.70;;;;;;5011265;28;20225;-69
2022/03/12 07:10:33;;;;;;;3.85;3.50;;;2.40;62.60;;;;;;5009718;28;20282;-71
2022/03/12 07:13:00;;;;;;;5.45;4.45;;;2.40;62.90;;;;;;5012078;28;20228;-69
2022/03/12 07:15:26;;;;;;;4.43;3.38;;;2.50;62.80;;;;;;5013723;28;20265;-69
2022/03/12 07:17:54;;;;;;;3.38;3.15;;;2.50;62.80;;;;;;5011396;28;20208;-70
2022/03/12 07:20:22;;;;;;;7.18;5.45;;;2.60;62.20;;;;;;5010933;28;20627;-67
2022/03/12 07:22:49;;;;;;;5.72;5.13;;;2.70;61.90;;;;;;5011088;28;20834;-68
2022/03/12 07:25:17;;;;;;;6.57;4.65;;;2.80;61.00;;;;;;5011280;28;20215;-69
2022/03/12 07:27:44;;;;;;;5.13;4.65;;;2.80;60.80;;;;;;5007713;28;20204;-69
2022/03/12 07:30:14;;;;;;;5.07;4.43;;;2.90;60.60;;;;;;4992903;28;20208;-68
2022/03/12 07:32:42;;;;;;;2.45;2.35;;;3.00;60.20;;;;;;5005605;28;20675;-69
2022/03/12 07:35:11;;;;;;;4.57;4.18;;;3.00;60.20;;;;;;5012007;28;20207;-68
2022/03/12 07:37:39;;;;;;;4.82;2.75;;;3.10;59.90;;;;;;5010889;28;20294;-69
2022/03/12 07:40:09;;;;;;;5.20;4.63;;;3.20;59.40;;;;;;5011044;28;20207;-68
2022/03/12 07:42:35;;;;;;;2.40;2.30;;;3.30;59.60;;;;;;5010416;28;20235;-70
2022/03/12 07:45:02;;;;;;;4.55;4.00;;;3.30;59.30;;;;;;5010702;28;20257;-70
2022/03/12 07:47:29;;;;;;;2.65;2.55;;;3.40;59.40;;;;;;5010676;28;20636;-68
2022/03/12 07:49:56;;;;;;;3.90;3.25;;;3.40;59.40;;;;;;5011242;28;20215;-70
2022/03/12 07:52:24;;;;;;;5.72;3.60;;;3.50;58.80;;;;;;5006208;28;20307;-69
2022/03/12 07:54:52;;;;;;;4.30;3.70;;;3.60;58.80;;;;;;4999888;28;20637;-69
2022/03/12 07:57:19;;;;;;;3.30;3.00;;;3.70;58.40;;;;;;5009262;28;20241;-69
2022/03/12 07:59:46;;;;;;;6.05;5.00;;;3.70;57.90;;;;;;5004719;28;20215;-70
2022/03/12 08:02:13;;;;;;;9.50;5.10;;;3.90;58.30;;;;;;5011553;28;20458;-69
2022/03/12 08:04:40;;;;;;;1.80;1.63;;;3.90;58.50;;;;;;5012458;28;20578;-70
2022/03/12 08:07:07;;;;;;;3.45;3.15;;;4.10;66.00;;;;;;5010918;28;20199;-70
2022/03/12 08:09:34;;;;;;;3.40;3.03;;;4.10;57.90;;;;;;5006893;28;20207;-70
2022/03/12 08:12:02;;;;;;;4.05;3.65;;;4.20;57.00;;;;;;4991954;28;20227;-70
2022/03/12 08:14:32;;;;;;;5.05;4.57;;;4.20;56.90;;;;;;4997028;28;20238;-70
2022/03/12 08:16:59;;;;;;;4.15;3.83;;;4.30;57.20;;;;;;5001280;28;20280;-71
2022/03/12 08:19:26;;;;;;;4.75;3.90;;;4.40;57.20;;;;;;5006462;28;20203;-70
2022/03/12 08:21:53;;;;;;;2.38;2.28;;;4.40;57.20;;;;;;5007100;28;20313;-70
2022/03/12 08:24:21;;;;;;;3.92;3.63;;;4.50;56.50;;;;;;5006093;28;20210;-70
2022/03/12 08:26:49;;;;;;;3.13;3.03;;;4.70;55.80;;;;;;5012924;28;20206;-70
2022/03/12 08:29:18;;;;;;;6.50;4.00;;;4.70;55.80;;;;;;5013922;28;20211;-69
2022/03/12 08:31:46;;;;;;;7.78;4.10;;;4.80;55.70;;;;;;4997986;28;20208;-72
2022/03/12 08:34:14;;;;;;;5.30;3.67;;;4.80;55.90;;;;;;5001234;28;20323;-69
2022/03/12 08:36:42;;;;;;;3.53;3.20;;;4.90;55.90;;;;;;5008813;28;20846;-70
2022/03/12 08:39:10;;;;;;;3.30;3.00;;;5.00;56.00;;;;;;5003184;28;20204;-70
2022/03/12 08:41:38;;;;;;;2.92;2.65;;;5.10;55.70;;;;;;5005329;28;20276;-72
2022/03/12 08:44:06;;;;;;;2.67;2.58;;;5.20;55.60;;;;;;5007510;28;20402;-72
2022/03/12 08:46:35;;;;;;;4.32;3.92;;;5.30;55.60;;;;;;4991137;28;20208;-72
2022/03/12 08:49:02;;;;;;;4.57;4.25;;;5.40;55.80;;;;;;5001674;28;20246;-72
2022/03/12 08:51:29;;;;;;;2.17;2.08;;;5.50;55.50;;;;;;4991126;28;20626;-72
2022/03/12 08:53:56;;;;;;;4.68;4.32;;;5.60;55.10;;;;;;4991642;28;20228;-72
2022/03/12 08:56:23;;;;;;;3.95;3.67;;;5.70;55.60;;;;;;4992553;28;20215;-72
2022/03/12 08:58:50;;;;;;;4.75;4.32;;;5.80;55.20;;;;;;5008164;28;20224;-72
2022/03/12 09:01:18;;;;;;;6.10;4.20;;;5.90;55.60;;;;;;5008102;28;20663;-72
2022/03/12 09:03:46;;;;;;;5.30;4.90;;;6.00;55.10;;;;;;4997501;28;20286;-71
2022/03/12 09:06:13;;;;;;;5.97;3.17;;;6.10;54.70;;;;;;4992171;28;20302;-72
2022/03/12 09:08:40;;;;;;;4.50;4.10;;;6.10;54.60;;;;;;5005448;28;20203;-72
2022/03/12 09:11:07;;;;;;;4.30;3.90;;;6.30;54.50;;;;;;5011723;28;20199;-72
2022/03/12 09:13:34;;;;;;;6.78;3.83;;;6.30;54.50;;;;;;5013033;28;20302;-73
2022/03/12 09:16:00;;;;;;;6.90;4.57;;;6.40;54.00;;;;;;5018525;28;20203;-73
2022/03/12 09:18:27;;;;;;;4.80;3.70;;;6.50;54.20;;;;;;4996191;28;20211;-72
2022/03/12 09:20:55;;;;;;;5.65;5.10;;;6.60;54.40;;;;;;5006448;28;20298;-71
2022/03/12 09:23:23;;;;;;;5.10;4.55;;;6.70;53.60;;;;;;5004264;28;20223;-72
2022/03/12 09:25:51;;;;;;;5.40;4.47;;;6.80;53.90;;;;;;5010756;28;20207;-72
2022/03/12 09:28:19;;;;;;;3.08;2.97;;;7.00;53.80;;;;;;4997982;28;20597;-72
2022/03/12 09:30:50;;;;;;;4.97;4.57;;;7.00;52.90;;;;;;5000184;28;20211;-74
2022/03/12 09:33:18;;;;;;;5.22;4.70;;;7.20;53.20;;;;;;5010980;28;20293;-73
2022/03/12 09:35:44;;;;;;;4.00;3.58;;;7.20;52.80;;;;;;5011205;28;20210;-72
2022/03/12 09:38:14;;;;;;;4.65;3.80;;;7.20;53.00;;;;;;5005161;28;20212;-71
2022/03/12 09:40:41;;;;;;;4.47;4.18;;;7.10;53.50;;;;;;4997737;28;20234;-71
2022/03/12 09:43:08;;;;;;;4.63;3.42;;;7.10;53.20;;;;;;4996180;28;20227;-72
2022/03/12 09:45:35;;;;;;;4.57;4.25;;;7.10;52.80;;;;;;5010403;28;20706;-73
2022/03/12 09:48:02;;;;;;;3.95;3.65;;;7.20;52.70;;;;;;4996028;28;20317;-71
2022/03/12 09:50:29;;;;;;;3.55;3.35;;;7.20;52.50;;;;;;5009790;28;20235;-72
2022/03/12 09:52:56;;;;;;;4.95;4.55;;;7.20;52.50;;;;;;4994841;28;20238;-71
2022/03/12 09:55:24;;;;;;;5.00;4.63;;;7.30;52.80;;;;;;4995021;28;20669;-72
2022/03/12 09:57:51;;;;;;;7.95;3.90;;;7.40;52.80;;;;;;5007956;28;20203;-71
2022/03/12 10:00:19;;;;;;;6.22;3.72;;;7.50;53.10;;;;;;5010944;28;20215;-71
2022/03/12 10:02:46;;;;;;;3.28;3.05;;;7.50;53.60;;;;;;5008734;28;20231;-71
2022/03/12 10:05:14;;;;;;;5.18;3.90;;;7.60;52.40;;;;;;5004370;28;20837;-71
2022/03/12 10:07:42;;;;;;;5.43;3.05;;;7.60;53.00;;;;;;5006400;28;20331;-71
2022/03/12 10:10:12;;;;;;;5.35;3.55;;;7.60;52.40;;;;;;5010420;28;20195;-72
2022/03/12 10:12:40;;;;;;;5.03;4.40;;;7.60;52.50;;;;;;5007534;28;20215;-72
2022/03/12 10:15:10;;;;;;;3.75;3.25;;;7.60;52.60;;;;;;5007146;28;20211;-72
2022/03/12 10:17:37;;;;;;;4.60;4.05;;;7.60;52.90;;;;;;5003560;28;20270;-72
2022/03/12 10:20:07;;;;;;;5.03;4.22;;;7.70;53.00;;;;;;4995340;28;20254;-72
2022/03/12 10:22:34;;;;;;;4.50;4.20;;;7.70;52.70;;;;;;5012815;28;20247;-72
2022/03/12 10:25:01;;;;;;;4.43;4.13;;;7.80;52.50;;;;;;5011760;28;20664;-72
2022/03/12 10:27:28;;;;;;;3.83;3.10;;;7.80;52.70;;;;;;5012489;28;20215;-72
2022/03/12 10:29:56;;;;;;;2.92;2.72;;;7.90;52.30;;;;;;5002237;28;20200;-72
2022/03/12 10:32:26;;;;;;;5.97;4.22;;;8.00;52.70;;;;;;5005858;28;20314;-72
2022/03/12 10:34:56;;;;;;;4.47;4.03;;;8.00;52.30;;;;;;5004555;28;20609;-72
2022/03/12 10:37:25;;;;;;;5.25;4.43;;;8.00;52.70;;;;;;5013089;28;20199;-73
2022/03/12 10:40:03;;;;;;;3.50;3.22;;;8.00;52.00;;;;;;5012043;28;20586;-72
2022/03/12 10:42:31;;;;;;;4.55;4.15;;;8.00;52.20;;;;;;5006329;28;20219;-73
2022/03/12 10:45:07;;;;;;;1.85;1.80;;;8.00;52.20;;;;;;5011501;28;20235;-73
2022/03/12 10:47:40;;;;;;;6.60;4.85;;;8.10;52.20;;;;;;5005551;28;20512;-71
2022/03/12 10:50:11;;;;;;;4.22;3.83;;;8.20;52.50;;;;;;4998758;28;20591;-73
2022/03/12 10:52:45;;;;;;;4.88;4.38;;;8.30;52.60;;;;;;5000395;28;20238;-72
2022/03/12 10:55:18;;;;;;;5.18;4.78;;;8.40;52.10;;;;;;5004082;28;20283;-73
2022/03/12 10:58:03;;;;;;;5.35;3.38;;;8.50;52.30;;;;;;5006947;28;20215;-72
2022/03/12 11:00:37;;;;;;;5.72;5.13;;;8.60;51.70;;;;;;5007934;28;20211;-72
2022/03/12 11:03:05;;;;;;;4.60;4.30;;;8.60;51.70;;;;;;5006000;28;20250;-72
2022/03/12 11:05:35;;;;;;;3.65;3.35;;;8.70;51.50;;;;;;5003788;28;20750;-72
2022/03/12 11:08:11;;;;;;;6.43;5.78;;;8.70;51.60;;;;;;5008702;28;20900;-72
2022/03/12 11:10:51;;;;;;;8.13;4.10;;;8.70;51.50;;;;;;5011790;28;20281;-72
2022/03/12 11:13:40;;;;;;;4.82;4.43;;;8.60;50.70;;;;;;5010878;28;20215;-72
2022/03/12 11:16:24;;;;;;;3.92;3.63;;;8.80;51.00;;;;;;5000708;28;20294;-72
2022/03/12 11:18:59;;;;;;;18.00;4.63;;;8.80;51.00;;;;;;5007795;28;20238;-72
2022/03/12 11:21:37;;;;;;;5.13;4.53;;;8.90;51.30;;;;;;5007543;28;20277;-72
2022/03/12 11:24:05;;;;;;;6.60;4.95;;;8.90;51.50;;;;;;5008247;28;20226;-72
2022/03/12 11:26:32;;;;;;;2.40;2.30;;;9.10;51.70;;;;;;4999392;28;20203;-72
2022/03/12 11:28:59;;;;;;;6.72;5.00;;;9.20;50.90;;;;;;5003609;28;20211;-71
2022/03/12 11:31:41;;;;;;;7.35;4.53;;;9.20;50.60;;;;;;5010451;28;20214;-70
2022/03/12 11:34:23;;;;;;;11.70;3.60;;;9.30;50.60;;;;;;5001103;28;20206;-69
2022/03/12 11:37:10;;;;;;;5.70;4.20;;;9.40;50.40;;;;;;5008598;28;20213;-70
2022/03/12 11:39:40;;;;;;;5.35;3.55;;;9.40;50.00;;;;;;5003630;28;20207;-69
2022/03/12 11:42:11;;;;;;;4.10;3.90;;;9.40;50.00;;;;;;5007568;28;20521;-69
2022/03/12 11:44:39;;;;;;;5.57;4.70;;;9.40;49.90;;;;;;4998110;28;20223;-70
2022/03/12 11:47:08;;;;;;;5.45;4.53;;;9.50;50.40;;;;;;5009879;28;20204;-70
2022/03/12 11:49:35;;;;;;;3.65;3.20;;;9.60;50.50;;;;;;5008643;28;20976;-72
2022/03/12 11:52:03;;;;;;;8.15;5.18;;;9.80;50.30;;;;;;5002884;28;20653;-70
2022/03/12 11:54:30;;;;;;;3.28;2.95;;;9.80;50.00;;;;;;5003745;28;20576;-72
2022/03/12 11:56:59;;;;;;;4.18;3.97;;;9.80;49.90;;;;;;5005332;28;20246;-72
2022/03/12 11:59:25;;;;;;;3.65;3.38;;;9.80;50.00;;;;;;5009610;28;20261;-72
2022/03/12 12:02:02;;;;;;;3.80;3.50;;;10.00;48.20;;;;;;5010013;28;20203;-72
2022/03/12 12:04:32;;;;;;;2.67;2.47;;;10.00;48.00;;;;;;5010070;28;20699;-71
2022/03/12 12:07:00;;;;;;;4.20;4.00;;;10.10;47.70;;;;;;5010331;28;20270;-71
2022/03/12 12:09:27;;;;;;;3.15;2.75;;;10.20;48.20;;;;;;5011373;28;20195;-71
2022/03/12 12:11:54;;;;;;;4.68;3.25;;;10.20;48.00;;;;;;5011060;28;20210;-70
2022/03/12 12:14:22;;;;;;;5.80;5.20;;;10.20;48.20;;;;;;5005793;28;20287;-71
2022/03/12 12:16:48;;;;;;;4.43;3.50;;;10.30;48.30;;;;;;5005129;28;20209;-71
2022/03/12 12:19:16;;;;;;;10.10;5.95;;;10.40;47.90;;;;;;5004634;28;20672;-70
2022/03/12 12:21:44;;;;;;;5.38;5.07;;;10.40;47.70;;;;;;5009522;28;20222;-71
2022/03/12 12:24:31;;;;;;;5.30;5.00;;;10.50;47.90;;;;;;5008253;28;20237;-71
2022/03/12 12:27:00;;;;;;;6.13;4.75;;;10.60;47.90;;;;;;5007480;28;20232;-70
2022/03/12 12:29:43;;;;;;;5.25;4.85;;;10.60;47.90;;;;;;5005780;28;20253;-71
2022/03/12 12:32:11;;;;;;;3.80;3.55;;;10.80;48.10;;;;;;5009582;28;20235;-71
2022/03/12 12:34:58;;;;;;;5.10;4.80;;;10.70;47.20;;;;;;5007341;28;20211;-71
2022/03/12 12:37:53;;;;;;;4.57;4.18;;;10.80;47.50;;;;;;4999917;28;20242;-70
2022/03/12 12:40:26;;;;;;;5.47;4.60;;;10.70;47.20;;;;;;5007049;28;20269;-70
2022/03/12 12:42:56;;;;;;;8.43;5.03;;;10.70;47.60;;;;;;4998263;28;20627;-70
2022/03/12 12:45:24;;;;;;;4.47;4.25;;;10.80;47.90;;;;;;4991190;28;20306;-72
2022/03/12 12:48:08;;;;;;;4.88;4.57;;;10.80;47.00;;;;;;4995771;28;20199;-70
2022/03/12 12:50:35;;;;;;;4.20;3.90;;;10.80;46.70;;;;;;5007858;28;20241;-70
2022/03/12 12:53:28;;;;;;;3.90;3.70;;;10.90;46.80;;;;;;5008123;28;20231;-68
2022/03/12 12:56:20;;;;;;;3.58;3.10;;;10.90;47.10;;;;;;5006704;28;20234;-70
2022/03/12 12:58:48;;;;;;;17.50;3.85;;;11.00;47.40;;;;;;5005574;28;20235;-70
2022/03/12 13:01:17;;;;;;;2.78;2.67;;;11.10;46.80;;;;;;5000824;28;20214;-70
2022/03/12 13:03:47;;;;;;;5.40;4.80;;;11.20;46.20;;;;;;5014396;28;20258;-69
2022/03/12 13:06:48;;;;;;;3.10;2.90;;;11.30;46.30;;;;;;5009209;28;20233;-72
2022/03/12 13:09:21;;;;;;;3.25;2.92;;;11.20;45.80;;;;;;4999442;28;20215;-71
2022/03/12 13:11:53;;;;;;;4.53;3.95;;;11.20;46.60;;;;;;4996808;28;20230;-70
2022/03/12 13:14:21;;;;;;;3.05;2.83;;;11.30;46.30;;;;;;5007484;28;20204;-71
2022/03/12 13:16:52;;;;;;;4.97;4.57;;;11.30;45.60;;;;;;5003164;28;20299;-71
2022/03/12 13:19:41;;;;;;;5.30;4.80;;;11.30;46.10;;;;;;4990460;28;20208;-71
2022/03/12 13:22:10;;;;;;;3.85;3.65;;;11.30;46.00;;;;;;4994975;28;20458;-72
2022/03/12 13:24:46;;;;;;;4.70;3.40;;;11.30;46.30;;;;;;4991357;28;20669;-71
2022/03/12 13:27:19;;;;;;;4.47;3.30;;;11.40;46.20;;;;;;4991811;28;20207;-72
2022/03/12 13:29:47;;;;;;;4.93;4.50;;;11.50;46.40;;;;;;4993496;28;20656;-72
2022/03/12 13:32:24;;;;;;;4.57;4.15;;;11.50;46.10;;;;;;5006034;28;20234;-71
2022/03/12 13:34:51;;;;;;;6.45;4.82;;;11.50;46.20;;;;;;5012872;28;20194;-70
2022/03/12 13:37:17;;;;;;;2.85;2.65;;;11.50;46.20;;;;;;5013913;28;20214;-70
2022/03/12 13:39:46;;;;;;;4.97;4.35;;;11.50;45.90;;;;;;4994959;28;20215;-71
2022/03/12 13:42:14;;;;;;;5.57;5.07;;;11.60;45.60;;;;;;4993802;28;20231;-71
2022/03/12 13:44:45;;;;;;;4.63;4.30;;;11.60;45.00;;;;;;4993314;28;20691;-71
2022/03/12 13:47:20;;;;;;;4.72;4.30;;;11.50;44.60;;;;;;4994540;28;20215;-72
2022/03/12 13:49:50;;;;;;;4.90;4.50;;;11.50;44.80;;;;;;5012353;28;20294;-71
2022/03/12 13:52:19;;;;;;;3.53;3.20;;;11.60;44.80;;;;;;5012928;28;20233;-70
2022/03/12 13:54:47;;;;;;;3.78;3.53;;;11.60;44.50;;;;;;5010988;28;20617;-71
2022/03/12 13:57:15;;;;;;;3.90;3.03;;;11.70;44.70;;;;;;5003825;28;20212;-71
2022/03/12 13:59:42;;;;;;;4.40;4.05;;;11.70;44.40;;;;;;4992951;28;20527;-72
2022/03/12 14:02:11;;;;;;;4.90;4.50;;;11.70;43.90;;;;;;4992811;28;20227;-70
2022/03/12 14:04:38;;;;;;;4.55;4.20;;;11.70;43.80;;;;;;5002133;28;20224;-70
2022/03/12 14:07:13;;;;;;;3.33;3.00;;;11.70;43.90;;;;;;5008870;28;20207;-70
2022/03/12 14:09:40;;;;;;;4.05;3.75;;;11.70;43.90;;;;;;5011847;28;20244;-70
2022/03/12 14:12:09;;;;;;;4.78;4.32;;;11.70;44.30;;;;;;5013001;28;20227;-70
2022/03/12 14:14:35;;;;;;;5.03;4.57;;;11.70;44.30;;;;;;5012131;28;20203;-70
2022/03/12 14:17:04;;;;;;;4.35;4.15;;;11.80;44.40;;;;;;5013025;28;20346;-71
2022/03/12 14:19:32;;;;;;;2.85;2.65;;;11.80;44.60;;;;;;5010715;28;20218;-71
2022/03/12 14:22:01;;;;;;;4.95;4.10;;;11.80;44.40;;;;;;5003691;28;20231;-71
2022/03/12 14:24:30;;;;;;;4.70;4.35;;;11.80;44.50;;;;;;4994336;28;20243;-71
2022/03/12 14:26:58;;;;;;;3.28;3.05;;;11.80;44.00;;;;;;5011268;28;20215;-71
2022/03/12 14:29:28;;;;;;;4.10;3.80;;;11.80;44.10;;;;;;4992674;28;20661;-71
2022/03/12 14:31:56;;;;;;;3.80;3.45;;;11.80;44.90;;;;;;4992780;28;20208;-71
2022/03/12 14:34:26;;;;;;;5.60;4.97;;;11.90;44.50;;;;;;5010275;28;20253;-71
2022/03/12 14:36:53;;;;;;;4.68;4.38;;;11.80;44.40;;;;;;5013685;28;20273;-72
2022/03/12 14:39:24;;;;;;;3.38;3.17;;;11.90;44.50;;;;;;5012588;28;20725;-71
2022/03/12 14:41:55;;;;;;;3.38;3.15;;;11.90;44.50;;;;;;5007661;28;20230;-71
2022/03/12 14:44:22;;;;;;;3.50;3.20;;;11.90;44.10;;;;;;5011242;28;20699;-71
2022/03/12 14:46:51;;;;;;;6.18;3.55;;;11.90;44.30;;;;;;5008483;28;20234;-71
2022/03/12 14:49:30;;;;;;;4.90;4.50;;;11.80;44.30;;;;;;5010289;28;20211;-71
2022/03/12 14:51:58;;;;;;;3.35;3.15;;;11.80;44.80;;;;;;5007034;28;20254;-71
2022/03/12 14:54:28;;;;;;;3.15;2.95;;;11.80;44.10;;;;;;5007246;28;20450;-71
2022/03/12 14:56:57;;;;;;;4.05;3.75;;;11.80;44.40;;;;;;5003083;28;20204;-71
2022/03/12 14:59:27;;;;;;;4.63;4.32;;;11.80;44.60;;;;;;4997116;28;20199;-71
2022/03/12 15:02:09;;;;;;;4.40;4.10;;;11.80;44.10;;;;;;5007666;28;20210;-71
2022/03/12 15:04:45;;;;;;;5.05;4.60;;;11.80;44.20;;;;;;5009095;28;20318;-72
2022/03/12 15:07:18;;;;;;;3.53;3.40;;;11.80;44.30;;;;;;5004063;28;20229;-71
2022/03/12 15:09:53;;;;;;;3.13;2.92;;;11.90;44.10;;;;;;5001268;28;20203;-71
2022/03/12 15:12:34;;;;;;;4.25;3.95;;;11.90;44.30;;;;;;5011720;28;20345;-71
2022/03/12 15:15:15;;;;;;;3.15;2.95;;;11.90;44.30;;;;;;5009976;28;20351;-71
2022/03/12 15:17:44;;;;;;;5.22;4.80;;;11.90;44.00;;;;;;5008161;28;20592;-71
2022/03/12 15:20:13;;;;;;;4.50;4.28;;;11.90;43.80;;;;;;5008280;28;20812;-71
2022/03/12 15:22:43;;;;;;;2.78;2.60;;;11.90;43.80;;;;;;5009783;28;20238;-71
2022/03/12 15:25:13;;;;;;;3.20;3.10;;;11.80;43.80;;;;;;5011554;28;20318;-72
2022/03/12 15:27:40;;;;;;;5.50;5.05;;;11.80;43.90;;;;;;5008435;28;20286;-72
2022/03/12 15:30:10;;;;;;;4.72;4.30;;;11.80;43.80;;;;;;5003173;28;20207;-71
2022/03/12 15:32:37;;;;;;;4.47;4.07;;;11.80;43.60;;;;;;5008004;28;21039;-71
2022/03/12 15:35:08;;;;;;;4.15;3.80;;;11.80;43.40;;;;;;5010854;28;20199;-70
2022/03/12 15:37:38;;;;;;;5.22;4.38;;;11.80;43.60;;;;;;5005325;28;20217;-70
2022/03/12 15:40:09;;;;;;;4.90;4.50;;;11.80;43.40;;;;;;5010440;28;20207;-70
2022/03/12 15:42:38;;;;;;;4.28;3.88;;;11.70;43.90;;;;;;5010821;28;20227;-71
2022/03/12 15:45:07;;;;;;;4.65;3.83;;;11.70;43.70;;;;;;5010826;28;20223;-71
2022/03/12 15:47:34;;;;;;;4.93;4.43;;;11.70;43.20;;;;;;5011266;28;20202;-71
2022/03/12 15:50:01;;;;;;;5.20;4.13;;;11.70;43.80;;;;;;5007385;28;20211;-72
2022/03/12 15:52:29;;;;;;;3.70;3.13;;;11.70;44.00;;;;;;5002109;28;20231;-71
2022/03/12 15:54:56;;;;;;;4.50;4.15;;;11.70;43.60;;;;;;4997586;28;20669;-71
2022/03/12 15:57:23;;;;;;;4.00;3.70;;;11.70;43.60;;;;;;5002356;28;20215;-71
2022/03/12 15:59:50;;;;;;;4.50;4.07;;;11.70;43.60;;;;;;5009554;28;20207;-71
2022/03/12 16:02:17;;;;;;;3.42;3.22;;;11.70;44.50;;;;;;5004633;28;20238;-71
2022/03/12 16:04:44;;;;;;;4.63;3.42;;;11.60;43.20;;;;;;5008397;28;20234;-71
2022/03/12 16:07:10;;;;;;;4.72;4.32;;;11.60;43.20;;;;;;5009784;28;20859;-70
2022/03/12 16:09:38;;;;;;;2.85;2.65;;;11.60;43.40;;;;;;4997509;28;20236;-71
2022/03/12 16:12:06;;;;;;;3.80;3.60;;;11.50;43.10;;;;;;5010557;28;20587;-71
2022/03/12 16:14:35;;;;;;;5.43;5.00;;;11.40;43.30;;;;;;5001406;28;20247;-70
2022/03/12 16:17:02;;;;;;;3.55;3.28;;;11.40;43.60;;;;;;5000560;28;20231;-70
2022/03/12 16:19:28;;;;;;;3.30;2.95;;;11.30;44.00;;;;;;5007796;28;20290;-71
2022/03/12 16:21:55;;;;;;;2.15;1.95;;;11.30;43.70;;;;;;5005590;28;20211;-71
2022/03/12 16:24:22;;;;;;;7.63;5.13;;;11.30;43.90;;;;;;5009685;28;20204;-71
2022/03/12 16:26:50;;;;;;;4.90;4.60;;;11.20;44.60;;;;;;5008652;28;20218;-71
2022/03/12 16:29:17;;;;;;;5.22;4.70;;;11.10;44.80;;;;;;4999311;28;20625;-71
2022/03/12 16:31:44;;;;;;;5.57;5.15;;;10.90;44.70;;;;;;5009883;28;20210;-71
2022/03/12 16:34:10;;;;;;;4.53;4.22;;;10.90;44.80;;;;;;5010125;28;20879;-71
2022/03/12 16:36:39;;;;;;;6.38;5.70;;;10.80;44.90;;;;;;5011010;28;20214;-71
2022/03/12 16:39:07;;;;;;;5.75;5.25;;;10.70;45.10;;;;;;5010403;28;20269;-71
2022/03/12 16:41:35;;;;;;;3.65;3.35;;;10.60;45.20;;;;;;5009458;28;20241;-71
2022/03/12 16:44:03;;;;;;;3.83;3.40;;;10.50;45.20;;;;;;5010312;28;20234;-71
2022/03/12 16:46:32;;;;;;;5.88;5.10;;;10.50;45.20;;;;;;5010507;28;20233;-71
2022/03/12 16:49:01;;;;;;;14.10;9.35;;;10.50;45.50;;;;;;5011105;28;20360;-71
2022/03/12 16:51:29;;;;;;;8.68;7.78;;;10.40;45.50;;;;;;5009224;28;20294;-71
2022/03/12 16:53:56;;;;;;;6.80;6.22;;;10.30;46.10;;;;;;5010238;28;20250;-71
2022/03/12 16:56:23;;;;;;;4.45;4.15;;;10.10;46.10;;;;;;5009658;28;20204;-70
2022/03/12 16:58:50;;;;;;;4.70;4.40;;;10.10;45.90;;;;;;5010098;28;20668;-70
2022/03/12 17:01:19;;;;;;;5.25;4.78;;;10.20;45.70;;;;;;5004730;23;20203;-67
2022/03/12 17:03:45;;;;;;;4.30;4.00;;;10.10;46.30;;;;;;4989688;28;20229;-67
2022/03/12 17:06:12;;;;;;;4.60;4.30;;;10.00;46.00;;;;;;4989267;28;20223;-67
2022/03/12 17:08:39;;;;;;;5.68;5.22;;;9.80;47.20;;;;;;4993190;28;20265;-68
2022/03/12 17:11:07;;;;;;;6.00;4.90;;;9.70;47.50;;;;;;4993951;28;20280;-67
2022/03/12 17:13:34;;;;;;;5.38;4.60;;;9.60;47.80;;;;;;5011601;28;20764;-67
2022/03/12 17:16:05;;;;;;;6.10;4.85;;;9.50;47.90;;;;;;5008745;28;20217;-67
2022/03/12 17:18:34;;;;;;;7.47;4.65;;;9.40;48.10;;;;;;5012636;28;20210;-67
2022/03/12 17:21:01;;;;;;;5.50;5.00;;;9.30;48.30;;;;;;5011422;28;20206;-67
2022/03/12 17:23:28;;;;;;;9.02;5.40;;;9.10;49.00;;;;;;5011068;28;20207;-67
2022/03/12 17:25:56;;;;;;;5.38;4.85;;;9.00;49.50;;;;;;5008355;28;20306;-66
2022/03/12 17:28:24;;;;;;;6.78;5.60;;;8.80;50.00;;;;;;5001005;28;20211;-66
2022/03/12 17:30:52;;;;;;;6.40;5.40;;;8.70;49.90;;;;;;5004929;28;20203;-66
2022/03/12 17:33:19;;;;;;;7.28;5.32;;;8.60;49.90;;;;;;5012570;28;20237;-67
2022/03/12 17:35:48;;;;;;;7.10;5.15;;;8.50;49.70;;;;;;5008977;28;20203;-68
2022/03/12 17:38:15;;;;;;;6.85;5.97;;;8.40;49.80;;;;;;5011973;28;20226;-66
2022/03/12 17:40:43;;;;;;;6.40;4.70;;;8.30;50.40;;;;;;5002026;28;20207;-68
2022/03/12 17:43:10;;;;;;;5.60;4.60;;;8.10;50.80;;;;;;5008118;28;20228;-67
2022/03/12 17:45:37;;;;;;;5.10;4.60;;;8.00;51.00;;;;;;5011849;28;20251;-67
2022/03/12 17:48:07;;;;;;;6.25;5.68;;;7.90;51.60;;;;;;5010573;28;20212;-67
2022/03/12 17:50:34;;;;;;;5.82;5.03;;;7.80;52.10;;;;;;5005006;28;20203;-67
2022/03/12 17:53:04;;;;;;;5.70;5.03;;;7.70;53.20;;;;;;5006973;28;20227;-67
2022/03/12 17:55:31;;;;;;;7.22;6.45;;;7.60;52.70;;;;;;5010613;28;20204;-70
2022/03/12 17:57:58;;;;;;;12.98;7.40;;;7.50;53.00;;;;;;5008741;28;20222;-69
2022/03/12 18:00:26;;;;;;;9.27;7.57;;;7.40;54.40;;;;;;5009725;28;20207;-67
2022/03/12 18:02:55;;;;;;;9.73;7.65;;;7.20;55.60;;;;;;5011600;28;20231;-68
2022/03/12 18:05:25;;;;;;;10.48;8.23;;;7.10;57.20;;;;;;5011676;28;20226;-67